sensor_id;sensor_type;location;lat;lon;timestamp;pressure;altitude;pressure_sealevel;temperature;humidity
80500;BME280;69823;54.120;-4.710;2023-09-19T00:00:35;98419.54;;;23.80;23.84
80500;BME280;69823;54.120;-4.710;2023-09-19T00:03:01;98420.31;;;23.81;23.82
80500;BME280;69823;54.120;-4.710;2023-09-19T00:05:28;98421.90;;;23.57;23.84
80500;BME280;69823;54.120;-4.710;2023-09-19T00:07:54;98413.52;;;23.82;23.82
80500;BME280;69823;54.120;-4.710;2023-09-19T00:10:19;98413.27;;;23.81;23.84
80500;BME280;69823;54.120;-4.710;2023-09-19T00:12:44;98414.92;;;23.83;23.83
80500;BME280;69823;54.120;-4.710;2023-09-19T00:15:10;98412.28;;;23.56;23.84
80500;BME280;69823;54.120;-4.710;2023-09-19T00:17:36;98410.45;;;23.58;23.84
80500;BME280;69823;54.120;-4.710;2023-09-19T00:20:02;98407.91;;;23.78;23.87
80500;BME280;69823;54.120;-4.710;2023-09-19T00:22:28;98414.94;;;23.75;23.88
80500;BME280;69823;54.120;-4.710;2023-09-19T00:24:54;98411.28;;;23.78;23.87
80500;BME280;69823;54.120;-4.710;2023-09-19T00:27:19;98411.01;;;23.77;23.88
80500;BME280;69823;54.120;-4.710;2023-09-19T00:29:45;98408.00;;;23.76;23.89
80500;BME280;69823;54.120;-4.710;2023-09-19T00:32:11;98404.58;;;23.52;23.89
80500;BME280;69823;54.120;-4.710;2023-09-19T00:34:37;98393.80;;;23.28;23.89
80500;BME280;69823;54.120;-4.710;2023-09-19T00:37:03;98390.60;;;23.74;23.90
80500;BME280;69823;54.120;-4.710;2023-09-19T00:39:29;98386.36;;;23.71;23.92
80500;BME280;69823;54.120;-4.710;2023-09-19T00:41:55;98381.41;;;23.75;23.89
80500;BME280;69823;54.120;-4.710;2023-09-19T00:44:20;98386.04;;;23.72;23.92
80500;BME280;69823;54.120;-4.710;2023-09-19T00:46:46;98385.99;;;23.73;23.91
80500;BME280;69823;54.120;-4.710;2023-09-19T00:49:12;98387.03;;;23.72;23.93
80500;BME280;69823;54.120;-4.710;2023-09-19T00:51:38;98397.66;;;23.72;23.93
80500;BME280;69823;54.120;-4.710;2023-09-19T00:54:04;98399.47;;;23.73;23.91
80500;BME280;69823;54.120;-4.710;2023-09-19T00:56:30;98400.82;;;23.71;23.93
80500;BME280;69823;54.120;-4.710;2023-09-19T00:58:56;98399.01;;;23.70;23.94
80500;BME280;69823;54.120;-4.710;2023-09-19T01:01:21;98394.09;;;23.71;23.91
80500;BME280;69823;54.120;-4.710;2023-09-19T01:03:47;98391.67;;;23.68;23.95
80500;BME280;69823;54.120;-4.710;2023-09-19T01:06:13;98386.05;;;23.67;23.97
80500;BME280;69823;54.120;-4.710;2023-09-19T01:08:39;98385.41;;;23.70;23.93
80500;BME280;69823;54.120;-4.710;2023-09-19T01:11:10;98381.89;;;23.69;23.95
80500;BME280;69823;54.120;-4.710;2023-09-19T01:13:38;98390.93;;;23.68;23.95
80500;BME280;69823;54.120;-4.710;2023-09-19T01:16:03;98381.83;;;23.66;24.00
80500;BME280;69823;54.120;-4.710;2023-09-19T01:18:29;98372.54;;;23.68;23.97
80500;BME280;69823;54.120;-4.710;2023-09-19T01:20:55;98367.83;;;23.43;23.96
80500;BME280;69823;54.120;-4.710;2023-09-19T01:23:20;98364.24;;;23.67;23.95
80500;BME280;69823;54.120;-4.710;2023-09-19T01:30:35;98348.43;;;23.66;23.96
80500;BME280;69823;54.120;-4.710;2023-09-19T01:32:57;98353.57;;;23.68;23.94
80500;BME280;69823;54.120;-4.710;2023-09-19T01:35:23;98351.46;;;23.68;23.95
80500;BME280;69823;54.120;-4.710;2023-09-19T01:37:49;98350.74;;;23.66;23.97
80500;BME280;69823;54.120;-4.710;2023-09-19T01:40:17;98357.59;;;23.63;23.98
80500;BME280;69823;54.120;-4.710;2023-09-19T01:42:44;98351.75;;;23.67;23.95
80500;BME280;69823;54.120;-4.710;2023-09-19T01:45:11;98355.49;;;23.64;23.95
80500;BME280;69823;54.120;-4.710;2023-09-19T01:47:33;98343.76;;;23.60;23.99
80500;BME280;69823;54.120;-4.710;2023-09-19T01:50:07;98349.46;;;23.62;23.97
80500;BME280;69823;54.120;-4.710;2023-09-19T01:52:28;98333.43;;;23.62;23.97
80500;BME280;69823;54.120;-4.710;2023-09-19T01:54:52;98327.09;;;23.63;23.94
80500;BME280;69823;54.120;-4.710;2023-09-19T01:57:22;98329.93;;;23.60;23.98
80500;BME280;69823;54.120;-4.710;2023-09-19T01:59:45;98328.08;;;23.61;23.96
80500;BME280;69823;54.120;-4.710;2023-09-19T02:02:08;98331.04;;;23.59;23.98
80500;BME280;69823;54.120;-4.710;2023-09-19T02:04:33;98329.90;;;23.58;23.98
80500;BME280;69823;54.120;-4.710;2023-09-19T02:06:59;98325.08;;;23.60;23.96
80500;BME280;69823;54.120;-4.710;2023-09-19T02:09:25;98326.06;;;23.57;23.99
80500;BME280;69823;54.120;-4.710;2023-09-19T02:11:51;98315.98;;;23.58;23.99
80500;BME280;69823;54.120;-4.710;2023-09-19T02:14:17;98317.66;;;23.58;23.99
80500;BME280;69823;54.120;-4.710;2023-09-19T02:16:42;98313.55;;;23.58;24.00
80500;BME280;69823;54.120;-4.710;2023-09-19T02:19:08;98302.82;;;23.58;24.00
80500;BME280;69823;54.120;-4.710;2023-09-19T02:21:34;98296.36;;;23.34;23.99
80500;BME280;69823;54.120;-4.710;2023-09-19T02:24:00;98294.05;;;23.33;23.98
80500;BME280;69823;54.120;-4.710;2023-09-19T02:26:25;98288.16;;;23.58;23.99
80500;BME280;69823;54.120;-4.710;2023-09-19T02:28:51;98290.66;;;23.81;24.00
80500;BME280;69823;54.120;-4.710;2023-09-19T02:31:17;98279.98;;;23.56;24.01
80500;BME280;69823;54.120;-4.710;2023-09-19T02:33:43;98275.64;;;23.53;24.03
80500;BME280;69823;54.120;-4.710;2023-09-19T02:36:09;98267.32;;;23.31;24.02
80500;BME280;69823;54.120;-4.710;2023-09-19T02:38:35;98267.09;;;23.54;24.01
80500;BME280;69823;54.120;-4.710;2023-09-19T02:41:01;98269.22;;;23.53;24.03
80500;BME280;69823;54.120;-4.710;2023-09-19T02:43:27;98263.67;;;23.52;24.04
80500;BME280;69823;54.120;-4.710;2023-09-19T02:45:52;98258.94;;;23.55;24.02
80500;BME280;69823;54.120;-4.710;2023-09-19T02:48:18;98249.50;;;23.77;24.01
80500;BME280;69823;54.120;-4.710;2023-09-19T02:50:44;98244.15;;;23.53;24.02
80500;BME280;69823;54.120;-4.710;2023-09-19T02:53:10;98231.22;;;23.53;24.04
80500;BME280;69823;54.120;-4.710;2023-09-19T02:55:36;98226.93;;;23.53;24.05
80500;BME280;69823;54.120;-4.710;2023-09-19T02:58:01;98216.38;;;23.52;24.06
80500;BME280;69823;54.120;-4.710;2023-09-19T03:00:27;98215.66;;;23.52;24.05
80500;BME280;69823;54.120;-4.710;2023-09-19T03:02:54;98208.68;;;23.51;24.04
80500;BME280;69823;54.120;-4.710;2023-09-19T03:05:19;98198.05;;;23.50;24.05
80500;BME280;69823;54.120;-4.710;2023-09-19T03:07:45;98192.72;;;23.50;24.05
80500;BME280;69823;54.120;-4.710;2023-09-19T03:10:11;98177.36;;;23.47;24.09
80500;BME280;69823;54.120;-4.710;2023-09-19T03:12:36;98181.59;;;23.46;24.11
80500;BME280;69823;54.120;-4.710;2023-09-19T03:15:03;98181.99;;;23.45;24.13
80500;BME280;69823;54.120;-4.710;2023-09-19T03:17:28;98171.08;;;23.41;24.15
80500;BME280;69823;54.120;-4.710;2023-09-19T03:19:54;98158.20;;;23.38;24.18
80500;BME280;69823;54.120;-4.710;2023-09-19T03:22:20;98147.87;;;23.37;24.19
80500;BME280;69823;54.120;-4.710;2023-09-19T03:24:46;98139.55;;;23.38;24.18
80500;BME280;69823;54.120;-4.710;2023-09-19T03:27:12;98131.55;;;23.35;24.20
80500;BME280;69823;54.120;-4.710;2023-09-19T03:29:37;98129.66;;;23.30;24.24
80500;BME280;69823;54.120;-4.710;2023-09-19T03:32:04;98118.41;;;23.29;24.26
80500;BME280;69823;54.120;-4.710;2023-09-19T03:34:29;98106.70;;;23.26;24.28
80500;BME280;69823;54.120;-4.710;2023-09-19T03:36:55;98101.52;;;23.03;24.29
80500;BME280;69823;54.120;-4.710;2023-09-19T03:39:21;98096.72;;;23.24;24.32
80500;BME280;69823;54.120;-4.710;2023-09-19T03:41:47;98085.08;;;23.25;24.31
80500;BME280;69823;54.120;-4.710;2023-09-19T03:44:12;98074.90;;;23.26;24.31
80500;BME280;69823;54.120;-4.710;2023-09-19T03:46:38;98071.29;;;23.24;24.33
80500;BME280;69823;54.120;-4.710;2023-09-19T03:49:04;98067.30;;;23.29;24.29
80500;BME280;69823;54.120;-4.710;2023-09-19T03:51:30;98057.84;;;23.29;24.28
80500;BME280;69823;54.120;-4.710;2023-09-19T03:53:56;98049.47;;;23.30;24.26
80500;BME280;69823;54.120;-4.710;2023-09-19T03:56:22;98036.12;;;23.29;24.28
80500;BME280;69823;54.120;-4.710;2023-09-19T03:58:48;98031.07;;;23.27;24.29
80500;BME280;69823;54.120;-4.710;2023-09-19T04:01:13;98024.83;;;23.47;24.33
80500;BME280;69823;54.120;-4.710;2023-09-19T04:03:39;98015.79;;;23.25;24.30
80500;BME280;69823;54.120;-4.710;2023-09-19T04:06:05;98002.20;;;23.23;24.32
80500;BME280;69823;54.120;-4.710;2023-09-19T04:08:31;97991.67;;;23.22;24.34
80500;BME280;69823;54.120;-4.710;2023-09-19T04:10:57;97978.55;;;23.25;24.32
80500;BME280;69823;54.120;-4.710;2023-09-19T04:13:23;97970.72;;;23.26;24.30
80500;BME280;69823;54.120;-4.710;2023-09-19T04:15:48;97967.90;;;23.23;24.33
80500;BME280;69823;54.120;-4.710;2023-09-19T04:18:14;97956.61;;;23.22;24.34
80500;BME280;69823;54.120;-4.710;2023-09-19T04:20:40;97961.66;;;23.22;24.34
80500;BME280;69823;54.120;-4.710;2023-09-19T04:23:06;97943.17;;;23.22;24.34
80500;BME280;69823;54.120;-4.710;2023-09-19T04:25:32;97954.19;;;23.18;24.38
80500;BME280;69823;54.120;-4.710;2023-09-19T04:27:58;97951.46;;;23.17;24.38
80500;BME280;69823;54.120;-4.710;2023-09-19T04:30:24;97946.56;;;23.18;24.37
80500;BME280;69823;54.120;-4.710;2023-09-19T04:32:49;97932.89;;;23.19;24.37
80500;BME280;69823;54.120;-4.710;2023-09-19T04:35:15;97922.64;;;23.16;24.38
80500;BME280;69823;54.120;-4.710;2023-09-19T04:37:41;97912.59;;;23.39;24.40
80500;BME280;69823;54.120;-4.710;2023-09-19T04:40:08;97896.90;;;23.12;24.42
80500;BME280;69823;54.120;-4.710;2023-09-19T04:42:33;97883.83;;;23.10;24.44
80500;BME280;69823;54.120;-4.710;2023-09-19T04:44:59;97878.78;;;23.10;24.44
80500;BME280;69823;54.120;-4.710;2023-09-19T04:47:24;97864.99;;;23.10;24.44
80500;BME280;69823;54.120;-4.710;2023-09-19T04:49:50;97849.27;;;23.08;24.45
80500;BME280;69823;54.120;-4.710;2023-09-19T04:52:16;97825.25;;;23.12;24.44
80500;BME280;69823;54.120;-4.710;2023-09-19T04:54:42;97809.23;;;23.34;24.42
80500;BME280;69823;54.120;-4.710;2023-09-19T04:57:08;97794.11;;;22.85;24.43
80500;BME280;69823;54.120;-4.710;2023-09-19T04:59:34;97788.34;;;23.08;24.45
80500;BME280;69823;54.120;-4.710;2023-09-19T05:01:59;97780.22;;;23.09;24.44
80500;BME280;69823;54.120;-4.710;2023-09-19T05:04:25;97777.53;;;23.15;24.41
80500;BME280;69823;54.120;-4.710;2023-09-19T05:06:51;97773.59;;;23.19;24.37
80500;BME280;69823;54.120;-4.710;2023-09-19T05:09:17;97763.64;;;23.18;24.37
80500;BME280;69823;54.120;-4.710;2023-09-19T05:11:43;97733.54;;;23.15;24.38
80500;BME280;69823;54.120;-4.710;2023-09-19T05:14:09;97763.35;;;23.12;24.41
80500;BME280;69823;54.120;-4.710;2023-09-19T05:16:35;97747.81;;;23.08;24.44
80500;BME280;69823;54.120;-4.710;2023-09-19T05:19:00;97739.60;;;23.06;24.45
80500;BME280;69823;54.120;-4.710;2023-09-19T05:21:26;97732.80;;;23.02;24.47
80500;BME280;69823;54.120;-4.710;2023-09-19T05:23:52;97725.63;;;23.01;24.49
80500;BME280;69823;54.120;-4.710;2023-09-19T05:26:18;97722.92;;;23.03;24.49
80500;BME280;69823;54.120;-4.710;2023-09-19T05:28:44;97707.93;;;23.08;24.43
80500;BME280;69823;54.120;-4.710;2023-09-19T05:31:10;97699.76;;;23.08;24.43
80500;BME280;69823;54.120;-4.710;2023-09-19T05:33:36;97691.74;;;23.08;24.44
80500;BME280;69823;54.120;-4.710;2023-09-19T05:36:01;97675.32;;;23.09;24.41
80500;BME280;69823;54.120;-4.710;2023-09-19T05:38:27;97669.00;;;23.05;24.44
80500;BME280;69823;54.120;-4.710;2023-09-19T05:40:53;97660.86;;;23.05;24.45
80500;BME280;69823;54.120;-4.710;2023-09-19T05:43:19;97664.28;;;23.26;24.46
80500;BME280;69823;54.120;-4.710;2023-09-19T05:45:45;97643.11;;;23.03;24.46
80500;BME280;69823;54.120;-4.710;2023-09-19T05:48:12;97628.64;;;23.02;24.46
80500;BME280;69823;54.120;-4.710;2023-09-19T05:50:37;97638.34;;;23.50;24.46
80500;BME280;69823;54.120;-4.710;2023-09-19T05:53:03;97630.78;;;23.23;24.49
80500;BME280;69823;54.120;-4.710;2023-09-19T05:55:28;97620.83;;;22.73;24.50
80500;BME280;69823;54.120;-4.710;2023-09-19T05:57:54;97617.52;;;23.03;24.46
80500;BME280;69823;54.120;-4.710;2023-09-19T06:00:20;97613.35;;;23.05;24.44
80500;BME280;69823;54.120;-4.710;2023-09-19T06:02:50;97600.30;;;23.00;24.48
80500;BME280;69823;54.120;-4.710;2023-09-19T06:05:12;97589.40;;;23.02;24.46
80500;BME280;69823;54.120;-4.710;2023-09-19T06:07:37;97576.65;;;22.96;24.50
80500;BME280;69823;54.120;-4.710;2023-09-19T06:10:05;97575.49;;;22.96;24.51
80500;BME280;69823;54.120;-4.710;2023-09-19T06:12:29;97570.69;;;22.97;24.49
80500;BME280;69823;54.120;-4.710;2023-09-19T06:14:55;97574.42;;;22.98;24.49
80500;BME280;69823;54.120;-4.710;2023-09-19T06:17:21;97562.25;;;23.21;24.49
80500;BME280;69823;54.120;-4.710;2023-09-19T06:19:47;97557.92;;;22.96;24.50
80500;BME280;69823;54.120;-4.710;2023-09-19T06:22:15;97542.05;;;22.97;24.49
80500;BME280;69823;54.120;-4.710;2023-09-19T06:24:38;97535.42;;;22.96;24.49
80500;BME280;69823;54.120;-4.710;2023-09-19T06:27:04;97528.25;;;22.94;24.51
80500;BME280;69823;54.120;-4.710;2023-09-19T06:29:30;97525.99;;;22.95;24.50
80500;BME280;69823;54.120;-4.710;2023-09-19T06:31:56;97517.33;;;23.18;24.50
80500;BME280;69823;54.120;-4.710;2023-09-19T06:34:22;97509.96;;;23.22;24.45
80500;BME280;69823;54.120;-4.710;2023-09-19T06:36:48;97503.51;;;23.06;24.37
80500;BME280;69823;54.120;-4.710;2023-09-19T06:39:13;97501.27;;;23.09;24.31
80500;BME280;69823;54.120;-4.710;2023-09-19T06:41:39;97487.00;;;23.12;24.29
80500;BME280;69823;54.120;-4.710;2023-09-19T06:44:05;97497.73;;;23.14;24.24
80500;BME280;69823;54.120;-4.710;2023-09-19T06:46:31;97501.56;;;23.38;24.23
80500;BME280;69823;54.120;-4.710;2023-09-19T06:48:57;97496.76;;;23.14;24.22
80500;BME280;69823;54.120;-4.710;2023-09-19T06:51:23;97496.19;;;23.39;24.21
80500;BME280;69823;54.120;-4.710;2023-09-19T06:53:49;97486.79;;;23.42;24.17
80500;BME280;69823;54.120;-4.710;2023-09-19T06:56:14;97489.34;;;23.18;24.17
80500;BME280;69823;54.120;-4.710;2023-09-19T06:58:40;97483.00;;;23.19;24.16
80500;BME280;69823;54.120;-4.710;2023-09-19T07:01:06;97485.47;;;23.19;24.15
80500;BME280;69823;54.120;-4.710;2023-09-19T07:03:32;97480.88;;;23.21;24.13
80500;BME280;69823;54.120;-4.710;2023-09-19T07:05:58;97484.02;;;23.21;24.13
80500;BME280;69823;54.120;-4.710;2023-09-19T07:08:24;97488.91;;;23.43;24.15
80500;BME280;69823;54.120;-4.710;2023-09-19T07:10:50;97473.86;;;23.67;24.13
80500;BME280;69823;54.120;-4.710;2023-09-19T07:13:15;97486.83;;;23.19;24.14
80500;BME280;69823;54.120;-4.710;2023-09-19T07:15:41;97480.38;;;23.42;24.15
80500;BME280;69823;54.120;-4.710;2023-09-19T07:18:07;97490.73;;;23.17;24.16
80500;BME280;69823;54.120;-4.710;2023-09-19T07:20:33;97493.85;;;23.17;24.15
80500;BME280;69823;54.120;-4.710;2023-09-19T07:22:59;97487.83;;;22.94;24.15
80500;BME280;69823;54.120;-4.710;2023-09-19T07:25:25;97489.04;;;23.18;24.15
80500;BME280;69823;54.120;-4.710;2023-09-19T07:27:51;97482.71;;;23.17;24.16
80500;BME280;69823;54.120;-4.710;2023-09-19T07:30:16;97491.60;;;23.16;24.18
80500;BME280;69823;54.120;-4.710;2023-09-19T07:32:42;97491.08;;;23.17;24.15
80500;BME280;69823;54.120;-4.710;2023-09-19T07:35:08;97493.93;;;23.15;24.18
80500;BME280;69823;54.120;-4.710;2023-09-19T07:37:34;97499.27;;;23.16;24.18
80500;BME280;69823;54.120;-4.710;2023-09-19T07:40:00;97485.38;;;23.14;24.21
80500;BME280;69823;54.120;-4.710;2023-09-19T07:42:26;97504.53;;;23.15;24.21
80500;BME280;69823;54.120;-4.710;2023-09-19T07:44:51;97507.90;;;23.15;24.23
80500;BME280;69823;54.120;-4.710;2023-09-19T07:47:17;97504.50;;;23.39;24.23
80500;BME280;69823;54.120;-4.710;2023-09-19T07:49:46;97516.53;;;23.17;24.22
80500;BME280;69823;54.120;-4.710;2023-09-19T07:52:09;97523.33;;;23.18;24.23
80500;BME280;69823;54.120;-4.710;2023-09-19T07:54:35;97528.96;;;23.21;24.21
80500;BME280;69823;54.120;-4.710;2023-09-19T07:57:01;97514.15;;;23.21;24.22
80500;BME280;69823;54.120;-4.710;2023-09-19T07:59:27;97525.76;;;23.41;24.24
80500;BME280;69823;54.120;-4.710;2023-09-19T08:01:52;97536.53;;;23.42;24.26
80500;BME280;69823;54.120;-4.710;2023-09-19T08:04:18;97525.02;;;23.41;24.28
80500;BME280;69823;54.120;-4.710;2023-09-19T08:06:44;97537.77;;;23.16;24.30
80500;BME280;69823;54.120;-4.710;2023-09-19T08:09:10;97534.66;;;23.15;24.33
80500;BME280;69823;54.120;-4.710;2023-09-19T08:11:36;97540.18;;;23.14;24.34
80500;BME280;69823;54.120;-4.710;2023-09-19T08:14:02;97541.74;;;23.19;24.29
80500;BME280;69823;54.120;-4.710;2023-09-19T08:16:28;97535.76;;;23.61;24.36
80500;BME280;69823;54.120;-4.710;2023-09-19T08:18:53;97540.44;;;23.12;24.37
80500;BME280;69823;54.120;-4.710;2023-09-19T08:21:19;97541.27;;;23.38;24.35
80500;BME280;69823;54.120;-4.710;2023-09-19T08:23:45;97544.37;;;23.13;24.38
80500;BME280;69823;54.120;-4.710;2023-09-19T08:26:11;97548.73;;;23.38;24.39
80500;BME280;69823;54.120;-4.710;2023-09-19T08:28:37;97535.98;;;23.13;24.42
80500;BME280;69823;54.120;-4.710;2023-09-19T08:31:03;97541.34;;;23.17;24.39
80500;BME280;69823;54.120;-4.710;2023-09-19T08:33:28;97559.38;;;23.19;24.37
80500;BME280;69823;54.120;-4.710;2023-09-19T08:35:55;97557.12;;;23.19;24.39
80500;BME280;69823;54.120;-4.710;2023-09-19T08:38:20;97565.89;;;23.17;24.41
80500;BME280;69823;54.120;-4.710;2023-09-19T08:40:46;97569.88;;;23.17;24.39
80500;BME280;69823;54.120;-4.710;2023-09-19T08:43:12;97581.35;;;23.16;24.40
80500;BME280;69823;54.120;-4.710;2023-09-19T08:45:38;97583.30;;;23.16;24.40
80500;BME280;69823;54.120;-4.710;2023-09-19T08:48:17;97591.33;;;23.14;24.42
80500;BME280;69823;54.120;-4.710;2023-09-19T08:50:29;97607.39;;;23.40;24.41
80500;BME280;69823;54.120;-4.710;2023-09-19T08:52:57;97612.81;;;23.16;24.38
80500;BME280;69823;54.120;-4.710;2023-09-19T08:55:25;97622.55;;;23.15;24.39
80500;BME280;69823;54.120;-4.710;2023-09-19T08:57:49;97625.80;;;23.14;24.41
80500;BME280;69823;54.120;-4.710;2023-09-19T09:00:14;97626.74;;;23.13;24.43
80500;BME280;69823;54.120;-4.710;2023-09-19T09:02:39;97631.00;;;23.13;24.43
80500;BME280;69823;54.120;-4.710;2023-09-19T09:05:05;97636.89;;;23.13;24.43
80500;BME280;69823;54.120;-4.710;2023-09-19T09:07:30;97630.85;;;23.13;24.43
80500;BME280;69823;54.120;-4.710;2023-09-19T09:09:56;97639.96;;;23.14;24.42
80500;BME280;69823;54.120;-4.710;2023-09-19T09:12:22;97648.90;;;23.12;24.44
80500;BME280;69823;54.120;-4.710;2023-09-19T09:14:48;97659.39;;;23.13;24.44
80500;BME280;69823;54.120;-4.710;2023-09-19T09:17:14;97656.44;;;23.40;24.41
80500;BME280;69823;54.120;-4.710;2023-09-19T09:19:40;97657.78;;;23.14;24.44
80500;BME280;69823;54.120;-4.710;2023-09-19T09:22:07;97664.92;;;23.12;24.45
80500;BME280;69823;54.120;-4.710;2023-09-19T09:24:31;97666.95;;;23.13;24.44
80500;BME280;69823;54.120;-4.710;2023-09-19T09:26:57;97678.13;;;23.14;24.43
80500;BME280;69823;54.120;-4.710;2023-09-19T09:31:49;97679.85;;;23.12;24.42
80500;BME280;69823;54.120;-4.710;2023-09-19T09:34:15;97671.39;;;23.10;24.44
80500;BME280;69823;54.120;-4.710;2023-09-19T09:36:41;97658.41;;;23.12;24.44
80500;BME280;69823;54.120;-4.710;2023-09-19T09:39:06;97659.95;;;23.10;24.44
80500;BME280;69823;54.120;-4.710;2023-09-19T09:41:36;97664.14;;;23.16;24.40
80500;BME280;69823;54.120;-4.710;2023-09-19T09:46:23;97665.58;;;23.15;24.41
80500;BME280;69823;54.120;-4.710;2023-09-19T09:48:56;97667.47;;;23.36;24.43
80500;BME280;69823;54.120;-4.710;2023-09-19T09:51:15;97673.63;;;23.13;24.44
80500;BME280;69823;54.120;-4.710;2023-09-19T09:53:41;97676.84;;;23.40;24.41
80500;BME280;69823;54.120;-4.710;2023-09-19T09:56:07;97682.93;;;23.16;24.41
80500;BME280;69823;54.120;-4.710;2023-09-19T09:58:33;97679.51;;;23.16;24.40
80500;BME280;69823;54.120;-4.710;2023-09-19T10:00:59;97674.74;;;23.15;24.42
80500;BME280;69823;54.120;-4.710;2023-09-19T10:03:31;97683.05;;;23.15;24.42
80500;BME280;69823;54.120;-4.710;2023-09-19T10:05:53;97682.57;;;23.11;24.45
80500;BME280;69823;54.120;-4.710;2023-09-19T10:08:16;97675.71;;;23.14;24.44
80500;BME280;69823;54.120;-4.710;2023-09-19T10:10:42;97675.60;;;23.15;24.43
80500;BME280;69823;54.120;-4.710;2023-09-19T10:13:09;97682.35;;;23.12;24.46
80500;BME280;69823;54.120;-4.710;2023-09-19T10:15:34;97691.62;;;23.14;24.44
80500;BME280;69823;54.120;-4.710;2023-09-19T10:18:00;97692.29;;;23.14;24.44
80500;BME280;69823;54.120;-4.710;2023-09-19T10:20:25;97686.58;;;23.12;24.46
80500;BME280;69823;54.120;-4.710;2023-09-19T10:22:52;97690.15;;;23.58;24.49
80500;BME280;69823;54.120;-4.710;2023-09-19T10:25:17;97689.83;;;23.11;24.50
80500;BME280;69823;54.120;-4.710;2023-09-19T10:27:43;97694.78;;;23.11;24.48
80500;BME280;69823;54.120;-4.710;2023-09-19T10:30:10;97696.68;;;23.12;24.47
80500;BME280;69823;54.120;-4.710;2023-09-19T10:32:35;97707.13;;;23.35;24.47
80500;BME280;69823;54.120;-4.710;2023-09-19T10:35:01;97717.31;;;23.11;24.47
80500;BME280;69823;54.120;-4.710;2023-09-19T10:37:27;97720.57;;;23.11;24.47
80500;BME280;69823;54.120;-4.710;2023-09-19T10:39:52;97722.35;;;23.36;24.47
80500;BME280;69823;54.120;-4.710;2023-09-19T10:42:19;97725.52;;;23.13;24.46
80500;BME280;69823;54.120;-4.710;2023-09-19T10:44:45;97728.24;;;23.15;24.44
80500;BME280;69823;54.120;-4.710;2023-09-19T10:47:09;97727.07;;;23.16;24.44
80500;BME280;69823;54.120;-4.710;2023-09-19T10:49:35;97731.54;;;23.36;24.47
80500;BME280;69823;54.120;-4.710;2023-09-19T10:52:02;97728.39;;;23.61;24.48
80500;BME280;69823;54.120;-4.710;2023-09-19T10:54:31;97731.70;;;23.16;24.43
80500;BME280;69823;54.120;-4.710;2023-09-19T10:56:53;97733.83;;;23.16;24.42
80500;BME280;69823;54.120;-4.710;2023-09-19T10:59:20;97731.58;;;23.38;24.44
80500;BME280;69823;54.120;-4.710;2023-09-19T11:01:46;97728.43;;;23.16;24.42
80500;BME280;69823;54.120;-4.710;2023-09-19T11:04:21;97722.00;;;23.40;24.42
80500;BME280;69823;54.120;-4.710;2023-09-19T11:06:38;97726.44;;;23.10;24.47
80500;BME280;69823;54.120;-4.710;2023-09-19T11:09:03;97731.72;;;23.10;24.49
80500;BME280;69823;54.120;-4.710;2023-09-19T11:11:39;97727.30;;;23.14;24.45
80500;BME280;69823;54.120;-4.710;2023-09-19T11:16:19;97726.14;;;23.13;24.45
80500;BME280;69823;54.120;-4.710;2023-09-19T11:18:52;97728.45;;;22.86;24.49
80500;BME280;69823;54.120;-4.710;2023-09-19T11:23:37;97729.26;;;23.12;24.47
80500;BME280;69823;54.120;-4.710;2023-09-19T11:26:03;97726.96;;;23.12;24.46
80500;BME280;69823;54.120;-4.710;2023-09-19T11:28:30;97726.46;;;23.13;24.47
80500;BME280;69823;54.120;-4.710;2023-09-19T11:30:54;97724.76;;;23.35;24.48
80500;BME280;69823;54.120;-4.710;2023-09-19T11:33:22;97719.13;;;23.37;24.47
80500;BME280;69823;54.120;-4.710;2023-09-19T11:36:02;97718.17;;;23.14;24.46
80500;BME280;69823;54.120;-4.710;2023-09-19T11:38:12;97715.01;;;23.16;24.45
80500;BME280;69823;54.120;-4.710;2023-09-19T11:40:38;97724.05;;;23.15;24.47
80500;BME280;69823;54.120;-4.710;2023-09-19T11:47:55;97725.10;;;23.22;24.42
80500;BME280;69823;54.120;-4.710;2023-09-19T11:50:23;97727.44;;;23.26;24.38
80500;BME280;69823;54.120;-4.710;2023-09-19T11:52:47;97729.14;;;23.45;24.43
80500;BME280;69823;54.120;-4.710;2023-09-19T11:55:13;97729.97;;;23.17;24.45
80500;BME280;69823;54.120;-4.710;2023-09-19T11:57:39;97729.35;;;23.41;24.45
80500;BME280;69823;54.120;-4.710;2023-09-19T12:00:06;97730.94;;;22.98;24.42
80500;BME280;69823;54.120;-4.710;2023-09-19T12:02:37;97730.48;;;23.21;24.42
80500;BME280;69823;54.120;-4.710;2023-09-19T12:04:56;97725.86;;;23.25;24.38
80500;BME280;69823;54.120;-4.710;2023-09-19T12:07:22;97726.71;;;23.21;24.42
80500;BME280;69823;54.120;-4.710;2023-09-19T12:09:50;97724.59;;;23.50;24.38
80500;BME280;69823;54.120;-4.710;2023-09-19T12:12:19;97721.97;;;23.32;24.32
80500;BME280;69823;54.120;-4.710;2023-09-19T12:14:40;97719.28;;;23.29;24.35
80500;BME280;69823;54.120;-4.710;2023-09-19T12:17:05;97717.92;;;23.31;24.35
80500;BME280;69823;54.120;-4.710;2023-09-19T12:19:31;97715.27;;;23.29;24.38
80500;BME280;69823;54.120;-4.710;2023-09-19T12:21:58;97713.06;;;23.24;24.42
80500;BME280;69823;54.120;-4.710;2023-09-19T12:24:24;97714.30;;;23.30;24.35
80500;BME280;69823;54.120;-4.710;2023-09-19T12:26:51;97714.62;;;23.56;24.35
80500;BME280;69823;54.120;-4.710;2023-09-19T12:29:16;97705.31;;;23.25;24.42
80500;BME280;69823;54.120;-4.710;2023-09-19T12:31:50;97705.51;;;23.30;24.37
80500;BME280;69823;54.120;-4.710;2023-09-19T12:34:08;97704.23;;;23.76;24.37
80500;BME280;69823;54.120;-4.710;2023-09-19T12:36:32;97702.20;;;23.28;24.38
80500;BME280;69823;54.120;-4.710;2023-09-19T12:38:58;97702.06;;;23.27;24.39
80500;BME280;69823;54.120;-4.710;2023-09-19T12:41:24;97701.29;;;23.27;24.40
80500;BME280;69823;54.120;-4.710;2023-09-19T12:43:50;97696.28;;;23.29;24.37
80500;BME280;69823;54.120;-4.710;2023-09-19T12:46:19;97696.87;;;23.30;24.37
80500;BME280;69823;54.120;-4.710;2023-09-19T12:48:41;97692.90;;;23.26;24.40
80500;BME280;69823;54.120;-4.710;2023-09-19T12:51:08;97693.11;;;23.04;24.37
80500;BME280;69823;54.120;-4.710;2023-09-19T12:53:33;97697.71;;;23.23;24.42
80500;BME280;69823;54.120;-4.710;2023-09-19T12:55:59;97694.94;;;23.22;24.43
80500;BME280;69823;54.120;-4.710;2023-09-19T12:58:25;97695.23;;;23.25;24.40
80500;BME280;69823;54.120;-4.710;2023-09-19T13:00:51;97697.76;;;23.24;24.40